Terminal Aerodrome Forecast
Issued by NWS Twin Cities, MN

Home | Current Version | Previous Version | Text Only | Print | Product List | Glossary Off
Versions: 1 2 3 4 5 6 7 8 9 10 11 12 13 14 15 16 17 18 19 20 21 22 23 24 25

632
FTUS43 KMPX 150832 AAA
TAFMSP
TAF AMD
KMSP 150832Z 1509/1612 33015G22KT 6SM -SN OVC020
     FM151900 32015G24KT 3SM -SN BR BKN015 OVC035
     FM160400 32012KT P6SM -SHSN SCT015 BKN040=

USA.gov is the U.S. government's official web portal to all federal, state and local government web resources and services.